sensor_id;sensor_type;location;lat;lon;timestamp;temperature;humidity
21033;DHT22;10675;47.976;7.824;2023-03-07T00:00:09;4.50;96.20
21033;DHT22;10675;47.976;7.824;2023-03-07T00:02:37;4.50;96.70
21033;DHT22;10675;47.976;7.824;2023-03-07T00:05:03;4.40;96.20
21033;DHT22;10675;47.976;7.824;2023-03-07T00:07:29;4.50;96.20
21033;DHT22;10675;47.976;7.824;2023-03-07T00:09:58;4.50;96.00
21033;DHT22;10675;47.976;7.824;2023-03-07T00:12:24;4.50;96.10
21033;DHT22;10675;47.976;7.824;2023-03-07T00:14:50;4.50;96.20
21033;DHT22;10675;47.976;7.824;2023-03-07T00:17:16;4.50;96.20
21033;DHT22;10675;47.976;7.824;2023-03-07T00:19:44;4.50;96.00
21033;DHT22;10675;47.976;7.824;2023-03-07T00:22:10;4.50;95.90
21033;DHT22;10675;47.976;7.824;2023-03-07T00:24:36;4.50;96.10
21033;DHT22;10675;47.976;7.824;2023-03-07T00:27:02;4.50;96.20
21033;DHT22;10675;47.976;7.824;2023-03-07T00:29:28;4.50;95.90
21033;DHT22;10675;47.976;7.824;2023-03-07T00:31:53;4.50;96.00
21033;DHT22;10675;47.976;7.824;2023-03-07T00:34:19;4.50;96.10
21033;DHT22;10675;47.976;7.824;2023-03-07T00:36:44;4.50;96.00
21033;DHT22;10675;47.976;7.824;2023-03-07T00:39:10;4.50;96.10
21033;DHT22;10675;47.976;7.824;2023-03-07T00:41:36;4.40;96.10
21033;DHT22;10675;47.976;7.824;2023-03-07T00:44:01;4.40;96.30
21033;DHT22;10675;47.976;7.824;2023-03-07T00:46:27;4.40;96.20
21033;DHT22;10675;47.976;7.824;2023-03-07T00:48:53;4.40;96.30
21033;DHT22;10675;47.976;7.824;2023-03-07T00:51:20;4.40;96.20
21033;DHT22;10675;47.976;7.824;2023-03-07T00:53:47;4.40;96.30
21033;DHT22;10675;47.976;7.824;2023-03-07T00:56:15;4.40;96.40
21033;DHT22;10675;47.976;7.824;2023-03-07T00:58:41;4.40;96.50
21033;DHT22;10675;47.976;7.824;2023-03-07T01:01:07;4.40;96.40
21033;DHT22;10675;47.976;7.824;2023-03-07T01:03:34;4.40;96.50
21033;DHT22;10675;47.976;7.824;2023-03-07T01:06:05;4.50;96.50
21033;DHT22;10675;47.976;7.824;2023-03-07T01:08:31;4.40;96.50
21033;DHT22;10675;47.976;7.824;2023-03-07T01:10:58;4.30;96.50
21033;DHT22;10675;47.976;7.824;2023-03-07T01:13:24;4.40;96.40
21033;DHT22;10675;47.976;7.824;2023-03-07T01:15:50;4.40;96.50
21033;DHT22;10675;47.976;7.824;2023-03-07T01:18:16;4.30;96.50
21033;DHT22;10675;47.976;7.824;2023-03-07T01:20:41;4.30;96.50
21033;DHT22;10675;47.976;7.824;2023-03-07T01:23:07;4.30;96.50
21033;DHT22;10675;47.976;7.824;2023-03-07T01:25:40;4.30;96.50
21033;DHT22;10675;47.976;7.824;2023-03-07T01:28:07;4.30;96.60
21033;DHT22;10675;47.976;7.824;2023-03-07T01:30:33;4.20;96.60
21033;DHT22;10675;47.976;7.824;2023-03-07T01:33:00;4.30;96.70
21033;DHT22;10675;47.976;7.824;2023-03-07T01:37:54;4.30;96.80
21033;DHT22;10675;47.976;7.824;2023-03-07T01:40:22;4.30;96.70
21033;DHT22;10675;47.976;7.824;2023-03-07T01:42:48;4.30;96.70
21033;DHT22;10675;47.976;7.824;2023-03-07T01:47:42;4.30;97.00
21033;DHT22;10675;47.976;7.824;2023-03-07T01:50:13;4.30;97.00
21033;DHT22;10675;47.976;7.824;2023-03-07T01:52:42;4.30;97.10
21033;DHT22;10675;47.976;7.824;2023-03-07T01:55:18;4.30;97.10
21033;DHT22;10675;47.976;7.824;2023-03-07T01:57:47;4.40;97.10
21033;DHT22;10675;47.976;7.824;2023-03-07T02:00:16;4.40;97.00
21033;DHT22;10675;47.976;7.824;2023-03-07T02:05:45;4.40;97.10
21033;DHT22;10675;47.976;7.824;2023-03-07T02:08:13;4.40;96.90
21033;DHT22;10675;47.976;7.824;2023-03-07T02:10:39;4.40;96.80
21033;DHT22;10675;47.976;7.824;2023-03-07T02:13:06;4.40;96.80
21033;DHT22;10675;47.976;7.824;2023-03-07T02:15:33;4.40;96.80
21033;DHT22;10675;47.976;7.824;2023-03-07T02:17:59;4.40;96.90
21033;DHT22;10675;47.976;7.824;2023-03-07T02:26:33;4.40;96.80
21033;DHT22;10675;47.976;7.824;2023-03-07T02:28:59;4.40;96.70
21033;DHT22;10675;47.976;7.824;2023-03-07T02:31:25;4.40;96.60
21033;DHT22;10675;47.976;7.824;2023-03-07T02:33:51;4.40;96.60
21033;DHT22;10675;47.976;7.824;2023-03-07T02:36:22;4.40;96.70
21033;DHT22;10675;47.976;7.824;2023-03-07T02:38:51;4.50;96.80
21033;DHT22;10675;47.976;7.824;2023-03-07T02:41:21;4.50;96.70
21033;DHT22;10675;47.976;7.824;2023-03-07T02:43:48;4.50;96.70
21033;DHT22;10675;47.976;7.824;2023-03-07T02:46:13;4.50;96.50
21033;DHT22;10675;47.976;7.824;2023-03-07T02:48:39;4.40;96.70
21033;DHT22;10675;47.976;7.824;2023-03-07T02:51:05;4.40;96.70
21033;DHT22;10675;47.976;7.824;2023-03-07T02:53:30;4.40;96.70
21033;DHT22;10675;47.976;7.824;2023-03-07T02:55:56;4.50;96.50
21033;DHT22;10675;47.976;7.824;2023-03-07T02:58:21;4.50;96.70
21033;DHT22;10675;47.976;7.824;2023-03-07T03:00:47;4.50;96.50
21033;DHT22;10675;47.976;7.824;2023-03-07T03:03:13;4.50;96.50
21033;DHT22;10675;47.976;7.824;2023-03-07T03:05:38;4.50;96.50
21033;DHT22;10675;47.976;7.824;2023-03-07T03:08:04;4.50;96.40
21033;DHT22;10675;47.976;7.824;2023-03-07T03:10:30;4.50;96.50
21033;DHT22;10675;47.976;7.824;2023-03-07T03:12:56;4.50;96.50
21033;DHT22;10675;47.976;7.824;2023-03-07T03:15:21;4.40;96.50
21033;DHT22;10675;47.976;7.824;2023-03-07T03:17:47;4.50;96.70
21033;DHT22;10675;47.976;7.824;2023-03-07T03:20:12;4.50;96.60
21033;DHT22;10675;47.976;7.824;2023-03-07T03:22:39;4.50;96.20
21033;DHT22;10675;47.976;7.824;2023-03-07T03:25:06;4.50;96.00
21033;DHT22;10675;47.976;7.824;2023-03-07T03:27:33;4.50;96.00
21033;DHT22;10675;47.976;7.824;2023-03-07T03:30:00;4.50;96.00
21033;DHT22;10675;47.976;7.824;2023-03-07T03:32:25;4.50;96.10
21033;DHT22;10675;47.976;7.824;2023-03-07T03:34:51;4.50;96.10
21033;DHT22;10675;47.976;7.824;2023-03-07T03:37:16;4.50;96.20
21033;DHT22;10675;47.976;7.824;2023-03-07T03:39:42;4.40;96.20
21033;DHT22;10675;47.976;7.824;2023-03-07T03:42:07;4.40;96.10
21033;DHT22;10675;47.976;7.824;2023-03-07T03:44:33;4.40;96.10
21033;DHT22;10675;47.976;7.824;2023-03-07T03:46:59;4.40;96.00
21033;DHT22;10675;47.976;7.824;2023-03-07T03:49:24;4.60;95.90
21033;DHT22;10675;47.976;7.824;2023-03-07T03:51:50;4.50;96.00
21033;DHT22;10675;47.976;7.824;2023-03-07T03:54:15;4.50;95.80
21033;DHT22;10675;47.976;7.824;2023-03-07T03:56:41;4.40;95.90
21033;DHT22;10675;47.976;7.824;2023-03-07T03:59:06;4.40;95.90
21033;DHT22;10675;47.976;7.824;2023-03-07T04:01:32;4.60;95.70
21033;DHT22;10675;47.976;7.824;2023-03-07T04:03:58;4.40;95.60
21033;DHT22;10675;47.976;7.824;2023-03-07T04:06:29;4.40;95.70
21033;DHT22;10675;47.976;7.824;2023-03-07T04:08:55;4.40;95.90
21033;DHT22;10675;47.976;7.824;2023-03-07T04:11:22;4.30;95.90
21033;DHT22;10675;47.976;7.824;2023-03-07T04:13:48;4.40;95.80
21033;DHT22;10675;47.976;7.824;2023-03-07T04:16:14;4.40;95.60
21033;DHT22;10675;47.976;7.824;2023-03-07T04:18:40;4.40;95.80
21033;DHT22;10675;47.976;7.824;2023-03-07T04:21:06;4.40;95.70
21033;DHT22;10675;47.976;7.824;2023-03-07T04:23:31;4.40;95.60
21033;DHT22;10675;47.976;7.824;2023-03-07T04:25:59;4.40;95.70
21033;DHT22;10675;47.976;7.824;2023-03-07T04:28:28;4.40;95.70
21033;DHT22;10675;47.976;7.824;2023-03-07T04:31:07;4.40;95.80
21033;DHT22;10675;47.976;7.824;2023-03-07T04:33:32;4.40;96.00
21033;DHT22;10675;47.976;7.824;2023-03-07T04:35:58;4.60;96.10
21033;DHT22;10675;47.976;7.824;2023-03-07T04:38:23;4.40;96.00
21033;DHT22;10675;47.976;7.824;2023-03-07T04:40:49;4.40;95.90
21033;DHT22;10675;47.976;7.824;2023-03-07T04:43:14;4.40;96.00
21033;DHT22;10675;47.976;7.824;2023-03-07T04:45:40;4.40;96.00
21033;DHT22;10675;47.976;7.824;2023-03-07T04:48:06;4.40;96.10
21033;DHT22;10675;47.976;7.824;2023-03-07T04:50:31;4.40;96.10
21033;DHT22;10675;47.976;7.824;2023-03-07T04:52:57;4.40;96.10
21033;DHT22;10675;47.976;7.824;2023-03-07T04:55:22;4.40;96.20
21033;DHT22;10675;47.976;7.824;2023-03-07T04:57:48;4.40;96.10
21033;DHT22;10675;47.976;7.824;2023-03-07T05:00:15;4.40;96.40
21033;DHT22;10675;47.976;7.824;2023-03-07T05:02:41;4.40;96.30
21033;DHT22;10675;47.976;7.824;2023-03-07T05:05:07;4.50;96.20
21033;DHT22;10675;47.976;7.824;2023-03-07T05:07:32;4.50;96.20
21033;DHT22;10675;47.976;7.824;2023-03-07T05:09:58;4.40;96.50
21033;DHT22;10675;47.976;7.824;2023-03-07T05:12:24;4.40;96.30
21033;DHT22;10675;47.976;7.824;2023-03-07T05:14:49;4.50;96.10
21033;DHT22;10675;47.976;7.824;2023-03-07T05:17:15;4.50;96.10
21033;DHT22;10675;47.976;7.824;2023-03-07T05:19:41;4.50;96.10
21033;DHT22;10675;47.976;7.824;2023-03-07T05:22:07;4.50;96.20
21033;DHT22;10675;47.976;7.824;2023-03-07T05:24:33;4.50;96.20
21033;DHT22;10675;47.976;7.824;2023-03-07T05:26:58;4.50;96.10
21033;DHT22;10675;47.976;7.824;2023-03-07T05:29:24;4.50;96.10
21033;DHT22;10675;47.976;7.824;2023-03-07T05:31:49;4.40;96.00
21033;DHT22;10675;47.976;7.824;2023-03-07T05:34:15;4.50;96.10
21033;DHT22;10675;47.976;7.824;2023-03-07T05:36:42;4.50;96.30
21033;DHT22;10675;47.976;7.824;2023-03-07T05:39:08;4.50;96.20
21033;DHT22;10675;47.976;7.824;2023-03-07T05:41:34;4.50;96.30
21033;DHT22;10675;47.976;7.824;2023-03-07T05:43:59;4.40;96.20
21033;DHT22;10675;47.976;7.824;2023-03-07T05:46:25;4.40;96.20
21033;DHT22;10675;47.976;7.824;2023-03-07T05:48:51;4.40;96.10
21033;DHT22;10675;47.976;7.824;2023-03-07T05:51:17;4.40;96.30
21033;DHT22;10675;47.976;7.824;2023-03-07T05:53:42;4.40;96.10
21033;DHT22;10675;47.976;7.824;2023-03-07T05:56:08;4.60;96.10
21033;DHT22;10675;47.976;7.824;2023-03-07T05:58:33;4.40;96.10
21033;DHT22;10675;47.976;7.824;2023-03-07T06:01:01;4.40;96.20
21033;DHT22;10675;47.976;7.824;2023-03-07T06:03:27;4.40;96.10
21033;DHT22;10675;47.976;7.824;2023-03-07T06:05:52;4.40;96.10
21033;DHT22;10675;47.976;7.824;2023-03-07T06:08:18;4.40;96.10
21033;DHT22;10675;47.976;7.824;2023-03-07T06:10:48;4.40;96.10
21033;DHT22;10675;47.976;7.824;2023-03-07T06:13:16;4.40;96.00
21033;DHT22;10675;47.976;7.824;2023-03-07T06:15:42;4.40;96.10
21033;DHT22;10675;47.976;7.824;2023-03-07T06:18:08;4.40;95.90
21033;DHT22;10675;47.976;7.824;2023-03-07T06:20:33;4.40;95.90
21033;DHT22;10675;47.976;7.824;2023-03-07T06:23:00;4.80;96.60
21033;DHT22;10675;47.976;7.824;2023-03-07T06:25:25;5.10;95.70
21033;DHT22;10675;47.976;7.824;2023-03-07T06:27:51;5.10;94.90
21033;DHT22;10675;47.976;7.824;2023-03-07T06:30:16;5.20;94.80
21033;DHT22;10675;47.976;7.824;2023-03-07T06:32:42;5.00;94.30
21033;DHT22;10675;47.976;7.824;2023-03-07T06:35:08;5.00;94.20
21033;DHT22;10675;47.976;7.824;2023-03-07T06:37:34;5.00;94.30
21033;DHT22;10675;47.976;7.824;2023-03-07T06:39:59;4.80;94.40
21033;DHT22;10675;47.976;7.824;2023-03-07T06:42:25;4.70;94.60
21033;DHT22;10675;47.976;7.824;2023-03-07T06:44:50;4.50;94.30
21033;DHT22;10675;47.976;7.824;2023-03-07T06:47:16;4.50;94.30
21033;DHT22;10675;47.976;7.824;2023-03-07T06:49:41;4.50;94.20
21033;DHT22;10675;47.976;7.824;2023-03-07T06:52:07;4.50;94.20
21033;DHT22;10675;47.976;7.824;2023-03-07T06:54:33;4.50;94.60
21033;DHT22;10675;47.976;7.824;2023-03-07T06:56:58;4.50;94.40
21033;DHT22;10675;47.976;7.824;2023-03-07T06:59:24;4.50;94.40
21033;DHT22;10675;47.976;7.824;2023-03-07T07:01:49;4.50;94.40
21033;DHT22;10675;47.976;7.824;2023-03-07T07:04:15;4.50;94.20
21033;DHT22;10675;47.976;7.824;2023-03-07T07:06:40;4.60;94.40
21033;DHT22;10675;47.976;7.824;2023-03-07T07:09:06;4.50;94.20
21033;DHT22;10675;47.976;7.824;2023-03-07T07:11:31;4.60;94.20
21033;DHT22;10675;47.976;7.824;2023-03-07T07:13:57;4.60;93.90
21033;DHT22;10675;47.976;7.824;2023-03-07T07:16:22;4.60;94.10
21033;DHT22;10675;47.976;7.824;2023-03-07T07:18:51;4.70;93.90
21033;DHT22;10675;47.976;7.824;2023-03-07T07:21:17;4.70;93.60
21033;DHT22;10675;47.976;7.824;2023-03-07T07:23:43;4.80;93.50
21033;DHT22;10675;47.976;7.824;2023-03-07T07:26:08;4.80;93.80
21033;DHT22;10675;47.976;7.824;2023-03-07T07:28:34;4.80;93.00
21033;DHT22;10675;47.976;7.824;2023-03-07T07:30:59;4.80;93.00
21033;DHT22;10675;47.976;7.824;2023-03-07T07:33:25;4.90;93.00
21033;DHT22;10675;47.976;7.824;2023-03-07T07:35:51;4.90;92.50
21033;DHT22;10675;47.976;7.824;2023-03-07T07:38:16;4.90;92.40
21033;DHT22;10675;47.976;7.824;2023-03-07T07:40:42;4.90;92.40
21033;DHT22;10675;47.976;7.824;2023-03-07T07:43:13;5.00;92.00
21033;DHT22;10675;47.976;7.824;2023-03-07T07:45:39;4.90;92.00
21033;DHT22;10675;47.976;7.824;2023-03-07T07:48:05;4.90;91.70
21033;DHT22;10675;47.976;7.824;2023-03-07T07:50:30;5.00;92.00
21033;DHT22;10675;47.976;7.824;2023-03-07T07:52:56;5.10;92.00
21033;DHT22;10675;47.976;7.824;2023-03-07T07:55:21;5.10;91.80
21033;DHT22;10675;47.976;7.824;2023-03-07T07:57:49;5.10;92.20
21033;DHT22;10675;47.976;7.824;2023-03-07T08:00:15;5.20;93.10
21033;DHT22;10675;47.976;7.824;2023-03-07T08:02:46;5.30;91.50
21033;DHT22;10675;47.976;7.824;2023-03-07T08:05:13;5.70;91.80
21033;DHT22;10675;47.976;7.824;2023-03-07T08:07:39;5.30;91.50
21033;DHT22;10675;47.976;7.824;2023-03-07T08:10:05;5.40;91.30
21033;DHT22;10675;47.976;7.824;2023-03-07T08:12:31;5.40;90.80
21033;DHT22;10675;47.976;7.824;2023-03-07T08:14:56;5.30;90.70
21033;DHT22;10675;47.976;7.824;2023-03-07T08:17:22;5.30;90.70
21033;DHT22;10675;47.976;7.824;2023-03-07T08:19:47;5.40;91.00
21033;DHT22;10675;47.976;7.824;2023-03-07T08:22:13;5.40;90.50
21033;DHT22;10675;47.976;7.824;2023-03-07T08:24:38;5.50;90.70
21033;DHT22;10675;47.976;7.824;2023-03-07T08:27:04;5.50;91.00
21033;DHT22;10675;47.976;7.824;2023-03-07T08:29:29;5.50;90.90
21033;DHT22;10675;47.976;7.824;2023-03-07T08:31:55;5.60;90.90
21033;DHT22;10675;47.976;7.824;2023-03-07T08:34:20;5.60;91.00
21033;DHT22;10675;47.976;7.824;2023-03-07T08:36:46;5.60;90.80
21033;DHT22;10675;47.976;7.824;2023-03-07T08:39:12;5.60;90.80
21033;DHT22;10675;47.976;7.824;2023-03-07T08:41:37;5.60;90.80
21033;DHT22;10675;47.976;7.824;2023-03-07T08:44:03;5.60;90.90
21033;DHT22;10675;47.976;7.824;2023-03-07T08:46:29;5.60;91.20
21033;DHT22;10675;47.976;7.824;2023-03-07T08:48:54;5.70;91.30
21033;DHT22;10675;47.976;7.824;2023-03-07T08:51:20;5.70;91.20
21033;DHT22;10675;47.976;7.824;2023-03-07T08:53:46;5.70;91.50
21033;DHT22;10675;47.976;7.824;2023-03-07T08:56:15;5.70;91.50
21033;DHT22;10675;47.976;7.824;2023-03-07T08:58:41;5.70;91.80
21033;DHT22;10675;47.976;7.824;2023-03-07T09:01:07;5.70;92.00
21033;DHT22;10675;47.976;7.824;2023-03-07T09:03:33;5.70;91.70
21033;DHT22;10675;47.976;7.824;2023-03-07T09:05:59;5.70;91.80
21033;DHT22;10675;47.976;7.824;2023-03-07T09:08:25;5.70;91.80
21033;DHT22;10675;47.976;7.824;2023-03-07T09:10:50;5.80;91.70
21033;DHT22;10675;47.976;7.824;2023-03-07T09:13:16;5.80;91.70
21033;DHT22;10675;47.976;7.824;2023-03-07T09:15:42;5.80;91.50
21033;DHT22;10675;47.976;7.824;2023-03-07T09:18:08;5.80;91.30
21033;DHT22;10675;47.976;7.824;2023-03-07T09:20:36;5.90;90.70
21033;DHT22;10675;47.976;7.824;2023-03-07T09:23:02;5.90;91.10
21033;DHT22;10675;47.976;7.824;2023-03-07T09:25:28;6.00;91.00
21033;DHT22;10675;47.976;7.824;2023-03-07T09:27:54;6.10;90.90
21033;DHT22;10675;47.976;7.824;2023-03-07T09:30:20;6.20;91.30
21033;DHT22;10675;47.976;7.824;2023-03-07T09:32:47;6.30;91.20
21033;DHT22;10675;47.976;7.824;2023-03-07T09:35:13;6.30;90.50
21033;DHT22;10675;47.976;7.824;2023-03-07T09:37:39;6.60;91.30
21033;DHT22;10675;47.976;7.824;2023-03-07T09:40:05;6.30;90.40
21033;DHT22;10675;47.976;7.824;2023-03-07T09:48:19;6.40;91.00
21033;DHT22;10675;47.976;7.824;2023-03-07T09:51:00;6.40;90.90
21033;DHT22;10675;47.976;7.824;2023-03-07T09:53:36;6.40;90.70
21033;DHT22;10675;47.976;7.824;2023-03-07T09:58:59;6.40;90.20
21033;DHT22;10675;47.976;7.824;2023-03-07T10:01:29;6.30;90.20
21033;DHT22;10675;47.976;7.824;2023-03-07T10:04:03;6.30;90.10
21033;DHT22;10675;47.976;7.824;2023-03-07T10:06:38;6.40;90.50
21033;DHT22;10675;47.976;7.824;2023-03-07T10:09:07;6.40;89.60
21033;DHT22;10675;47.976;7.824;2023-03-07T10:23:41;6.80;88.90
21033;DHT22;10675;47.976;7.824;2023-03-07T10:26:18;6.90;89.20
21033;DHT22;10675;47.976;7.824;2023-03-07T10:28:45;6.80;88.50
21033;DHT22;10675;47.976;7.824;2023-03-07T10:31:26;6.80;88.80
21033;DHT22;10675;47.976;7.824;2023-03-07T10:33:54;7.00;88.50
21033;DHT22;10675;47.976;7.824;2023-03-07T10:36:20;6.80;87.60
21033;DHT22;10675;47.976;7.824;2023-03-07T10:39:17;6.80;87.60
21033;DHT22;10675;47.976;7.824;2023-03-07T10:41:44;7.10;88.00
21033;DHT22;10675;47.976;7.824;2023-03-07T10:44:16;7.00;87.10
21033;DHT22;10675;47.976;7.824;2023-03-07T10:46:43;7.40;87.60
21033;DHT22;10675;47.976;7.824;2023-03-07T10:49:13;7.70;85.50
21033;DHT22;10675;47.976;7.824;2023-03-07T10:54:20;8.20;82.90
21033;DHT22;10675;47.976;7.824;2023-03-07T10:59:28;8.20;82.50
21033;DHT22;10675;47.976;7.824;2023-03-07T11:01:56;8.20;81.70
21033;DHT22;10675;47.976;7.824;2023-03-07T11:04:24;8.20;81.60
21033;DHT22;10675;47.976;7.824;2023-03-07T11:11:57;7.90;81.20
21033;DHT22;10675;47.976;7.824;2023-03-07T11:14:27;7.90;80.40
21033;DHT22;10675;47.976;7.824;2023-03-07T11:16:56;8.10;81.10
21033;DHT22;10675;47.976;7.824;2023-03-07T11:19:30;7.90;80.30
21033;DHT22;10675;47.976;7.824;2023-03-07T11:21:57;8.10;81.10
21033;DHT22;10675;47.976;7.824;2023-03-07T11:24:29;8.30;79.90
21033;DHT22;10675;47.976;7.824;2023-03-07T11:26:57;8.00;79.40
21033;DHT22;10675;47.976;7.824;2023-03-07T11:29:23;7.70;79.60
21033;DHT22;10675;47.976;7.824;2023-03-07T11:34:29;7.30;79.50
21033;DHT22;10675;47.976;7.824;2023-03-07T11:37:10;7.40;80.50
21033;DHT22;10675;47.976;7.824;2023-03-07T11:42:33;7.50;78.50
21033;DHT22;10675;47.976;7.824;2023-03-07T11:48:15;7.60;79.60
21033;DHT22;10675;47.976;7.824;2023-03-07T11:50:48;7.80;78.80
21033;DHT22;10675;47.976;7.824;2023-03-07T11:54:00;7.40;79.00
21033;DHT22;10675;47.976;7.824;2023-03-07T11:56:18;7.40;78.90
21033;DHT22;10675;47.976;7.824;2023-03-07T12:04:05;7.80;78.20
21033;DHT22;10675;47.976;7.824;2023-03-07T12:12:16;8.00;76.80
21033;DHT22;10675;47.976;7.824;2023-03-07T12:20:38;8.40;75.20
21033;DHT22;10675;47.976;7.824;2023-03-07T12:23:28;8.40;75.50
21033;DHT22;10675;47.976;7.824;2023-03-07T12:26:25;8.50;75.60
21033;DHT22;10675;47.976;7.824;2023-03-07T12:29:00;8.20;74.00
21033;DHT22;10675;47.976;7.824;2023-03-07T12:31:31;8.00;76.00
21033;DHT22;10675;47.976;7.824;2023-03-07T12:34:16;8.10;76.60
21033;DHT22;10675;47.976;7.824;2023-03-07T12:36:55;8.70;77.00
21033;DHT22;10675;47.976;7.824;2023-03-07T12:39:43;8.60;75.30
21033;DHT22;10675;47.976;7.824;2023-03-07T12:42:29;8.50;75.30
21033;DHT22;10675;47.976;7.824;2023-03-07T12:47:53;8.30;75.30
21033;DHT22;10675;47.976;7.824;2023-03-07T12:50:36;8.20;77.20
21033;DHT22;10675;47.976;7.824;2023-03-07T12:55:45;8.30;76.10
21033;DHT22;10675;47.976;7.824;2023-03-07T13:01:03;8.90;76.10
21033;DHT22;10675;47.976;7.824;2023-03-07T13:03:52;9.10;75.20
21033;DHT22;10675;47.976;7.824;2023-03-07T13:06:20;8.90;74.00
21033;DHT22;10675;47.976;7.824;2023-03-07T13:08:52;8.70;75.10
21033;DHT22;10675;47.976;7.824;2023-03-07T13:11:21;8.80;74.70
21033;DHT22;10675;47.976;7.824;2023-03-07T13:13:50;8.20;74.30
21033;DHT22;10675;47.976;7.824;2023-03-07T13:16:39;8.40;75.60
21033;DHT22;10675;47.976;7.824;2023-03-07T13:24:50;8.70;75.00
21033;DHT22;10675;47.976;7.824;2023-03-07T13:27:20;9.40;75.10
21033;DHT22;10675;47.976;7.824;2023-03-07T13:30:16;9.30;74.60
21033;DHT22;10675;47.976;7.824;2023-03-07T13:41:04;9.70;72.10
21033;DHT22;10675;47.976;7.824;2023-03-07T13:43:34;9.90;71.90
21033;DHT22;10675;47.976;7.824;2023-03-07T13:46:27;10.10;72.00
21033;DHT22;10675;47.976;7.824;2023-03-07T13:51:19;9.10;72.60
21033;DHT22;10675;47.976;7.824;2023-03-07T13:59:00;9.50;72.20
21033;DHT22;10675;47.976;7.824;2023-03-07T14:04:37;8.90;73.50
21033;DHT22;10675;47.976;7.824;2023-03-07T14:07:23;8.70;74.50
21033;DHT22;10675;47.976;7.824;2023-03-07T14:09:54;9.00;75.30
21033;DHT22;10675;47.976;7.824;2023-03-07T14:15:56;9.10;74.60
21033;DHT22;10675;47.976;7.824;2023-03-07T14:21:07;9.00;75.10
21033;DHT22;10675;47.976;7.824;2023-03-07T14:23:50;8.70;75.20
21033;DHT22;10675;47.976;7.824;2023-03-07T14:28:57;8.80;76.40
21033;DHT22;10675;47.976;7.824;2023-03-07T14:31:40;8.60;76.00
21033;DHT22;10675;47.976;7.824;2023-03-07T14:37:44;8.60;76.70
21033;DHT22;10675;47.976;7.824;2023-03-07T14:40:24;8.60;76.90
21033;DHT22;10675;47.976;7.824;2023-03-07T14:43:34;8.40;77.00
21033;DHT22;10675;47.976;7.824;2023-03-07T14:51:28;8.40;77.00
21033;DHT22;10675;47.976;7.824;2023-03-07T14:53:55;8.10;76.60
21033;DHT22;10675;47.976;7.824;2023-03-07T14:56:29;8.00;77.10
21033;DHT22;10675;47.976;7.824;2023-03-07T14:59:00;8.00;77.70
21033;DHT22;10675;47.976;7.824;2023-03-07T15:01:44;8.00;78.30
21033;DHT22;10675;47.976;7.824;2023-03-07T15:04:24;7.90;77.80
21033;DHT22;10675;47.976;7.824;2023-03-07T15:06:59;8.10;78.00
21033;DHT22;10675;47.976;7.824;2023-03-07T15:09:26;8.10;78.50
21033;DHT22;10675;47.976;7.824;2023-03-07T15:14:47;8.10;79.10
21033;DHT22;10675;47.976;7.824;2023-03-07T15:17:26;8.10;79.30
21033;DHT22;10675;47.976;7.824;2023-03-07T15:20:18;8.00;78.00
21033;DHT22;10675;47.976;7.824;2023-03-07T15:22:45;8.00;78.70
21033;DHT22;10675;47.976;7.824;2023-03-07T15:25:19;8.00;78.90
21033;DHT22;10675;47.976;7.824;2023-03-07T15:27:56;8.10;79.50
21033;DHT22;10675;47.976;7.824;2023-03-07T15:30:25;8.00;79.30
21033;DHT22;10675;47.976;7.824;2023-03-07T15:35:38;8.00;78.70
21033;DHT22;10675;47.976;7.824;2023-03-07T15:38:22;7.90;78.90
21033;DHT22;10675;47.976;7.824;2023-03-07T15:40:50;7.90;79.50
21033;DHT22;10675;47.976;7.824;2023-03-07T15:45:44;8.10;78.90
21033;DHT22;10675;47.976;7.824;2023-03-07T15:51:04;8.20;78.40
21033;DHT22;10675;47.976;7.824;2023-03-07T15:53:38;8.10;78.60
21033;DHT22;10675;47.976;7.824;2023-03-07T15:56:20;8.10;78.00
21033;DHT22;10675;47.976;7.824;2023-03-07T15:58:46;8.10;78.00
21033;DHT22;10675;47.976;7.824;2023-03-07T16:01:21;8.20;77.90
21033;DHT22;10675;47.976;7.824;2023-03-07T16:03:58;8.10;78.00
21033;DHT22;10675;47.976;7.824;2023-03-07T16:06:44;7.90;78.60
21033;DHT22;10675;47.976;7.824;2023-03-07T16:09:12;7.70;79.10
21033;DHT22;10675;47.976;7.824;2023-03-07T16:11:38;7.60;80.30
21033;DHT22;10675;47.976;7.824;2023-03-07T16:14:04;7.50;80.20
21033;DHT22;10675;47.976;7.824;2023-03-07T16:16:30;7.40;80.40
21033;DHT22;10675;47.976;7.824;2023-03-07T16:18:56;7.30;80.70
21033;DHT22;10675;47.976;7.824;2023-03-07T16:21:23;7.20;80.50
21033;DHT22;10675;47.976;7.824;2023-03-07T16:23:48;7.10;80.60
21033;DHT22;10675;47.976;7.824;2023-03-07T16:26:18;7.10;81.10
21033;DHT22;10675;47.976;7.824;2023-03-07T16:28:46;7.10;80.90
21033;DHT22;10675;47.976;7.824;2023-03-07T16:31:14;7.10;80.60
21033;DHT22;10675;47.976;7.824;2023-03-07T16:33:41;6.90;80.40
21033;DHT22;10675;47.976;7.824;2023-03-07T16:36:08;7.00;81.20
21033;DHT22;10675;47.976;7.824;2023-03-07T16:38:34;7.10;80.40
21033;DHT22;10675;47.976;7.824;2023-03-07T16:41:01;7.20;80.30
21033;DHT22;10675;47.976;7.824;2023-03-07T16:43:32;7.20;79.90
21033;DHT22;10675;47.976;7.824;2023-03-07T16:46:05;7.50;79.60
21033;DHT22;10675;47.976;7.824;2023-03-07T16:48:31;7.80;78.80
21033;DHT22;10675;47.976;7.824;2023-03-07T16:50:57;8.90;77.90
21033;DHT22;10675;47.976;7.824;2023-03-07T16:53:23;8.50;76.80
21033;DHT22;10675;47.976;7.824;2023-03-07T16:55:49;8.40;76.40
21033;DHT22;10675;47.976;7.824;2023-03-07T16:58:21;8.20;77.00
21033;DHT22;10675;47.976;7.824;2023-03-07T17:00:47;8.00;77.90
21033;DHT22;10675;47.976;7.824;2023-03-07T17:03:12;7.60;78.40
21033;DHT22;10675;47.976;7.824;2023-03-07T17:05:38;7.50;79.20
21033;DHT22;10675;47.976;7.824;2023-03-07T17:08:03;7.30;79.80
21033;DHT22;10675;47.976;7.824;2023-03-07T17:10:29;7.10;80.80
21033;DHT22;10675;47.976;7.824;2023-03-07T17:12:56;6.90;81.70
21033;DHT22;10675;47.976;7.824;2023-03-07T17:15:23;6.80;82.00
21033;DHT22;10675;47.976;7.824;2023-03-07T17:17:55;6.60;82.00
21033;DHT22;10675;47.976;7.824;2023-03-07T17:20:21;6.60;82.10
21033;DHT22;10675;47.976;7.824;2023-03-07T17:22:48;6.50;82.40
21033;DHT22;10675;47.976;7.824;2023-03-07T17:25:15;6.50;82.70
21033;DHT22;10675;47.976;7.824;2023-03-07T17:27:45;6.50;82.50
21033;DHT22;10675;47.976;7.824;2023-03-07T17:30:19;6.40;82.90
21033;DHT22;10675;47.976;7.824;2023-03-07T17:32:46;6.40;83.00
21033;DHT22;10675;47.976;7.824;2023-03-07T17:35:12;6.40;83.30
21033;DHT22;10675;47.976;7.824;2023-03-07T17:37:39;6.40;83.50
21033;DHT22;10675;47.976;7.824;2023-03-07T17:40:05;6.30;84.00
21033;DHT22;10675;47.976;7.824;2023-03-07T17:42:37;6.40;84.30
21033;DHT22;10675;47.976;7.824;2023-03-07T17:45:04;6.40;84.60
21033;DHT22;10675;47.976;7.824;2023-03-07T17:47:30;6.30;84.20
21033;DHT22;10675;47.976;7.824;2023-03-07T17:49:57;6.30;84.10
21033;DHT22;10675;47.976;7.824;2023-03-07T17:52:22;6.30;84.60
21033;DHT22;10675;47.976;7.824;2023-03-07T17:54:48;6.30;84.70
21033;DHT22;10675;47.976;7.824;2023-03-07T17:57:14;6.40;85.10
21033;DHT22;10675;47.976;7.824;2023-03-07T17:59:40;6.20;84.80
21033;DHT22;10675;47.976;7.824;2023-03-07T18:02:06;6.30;85.00
21033;DHT22;10675;47.976;7.824;2023-03-07T18:04:32;6.30;84.80